Weather observations for the past three days for
Nebraska City, Nebraska City Municipal Airport
Imperial (Metric)
Date Time (cdt) Wind (mph) Vis. (mi.) Weather Sky Cond. Temperature (ºF) Relative Humidity Wind Chill (°F) Heat Index (°F) Pressure Precipitation (in)
Air Dwpt 6 hour altimeter (in) sea level (mb) 1 hr 3 hr 6 hr
Max. Min.
05 12:55 NE 7 10.00 Fair CLR 93.6 73.2 93.9 70.7 52% 103 29.99 0.0
05 12:35 NE 5 10.00 Fair CLR 93.6 71.4 49% 101 29.99 0.0
05 12:15 Calm 10.00 Fair CLR 91.9 71.6 52% 99 29.99 0.0
05 11:55 Calm 10.00 Fair CLR 91.9 71.8 52% 99 29.99 0.0
05 11:35 SW 3 10.00 Fair CLR 90.5 71.6 54% 97 29.99 0.0
05 11:15 Calm 10.00 Fair CLR 89.4 71.1 55% 96 29.99 0.0
05 10:55 Calm 10.00 Fair CLR 88.7 71.4 57% 95 29.99 0.0
05 10:35 Calm 10.00 Fair CLR 87.8 71.1 58% 94 29.98 0.0
05 10:15 Calm 10.00 Fair CLR 85.8 71.4 62% 92 29.98 0.0
05 09:55 Calm 10.00 Fair CLR 85.5 71.6 63% 91 29.97 0.0
05 09:35 SE 3 10.00 Fair CLR 83.1 70.7 66% 88 29.97 0.0
05 09:15 Calm 10.00 Fair CLR 81.7 70.3 69% 86 29.96 0.0
05 08:55 S 5 10.00 Fair CLR 79.5 70.2 73% 83 29.96 0.0
05 08:35 Calm 10.00 Fair CLR 77.7 69.1 75% 80 29.96 0.0
05 08:15 S 3 10.00 Fair CLR 76.5 69.1 78% 78 29.95 0.0
05 07:55 Calm 10.00 Fair CLR 75.4 68.9 80% 76 29.95 0.0
05 07:35 SE 3 10.00 Fair CLR 73.8 68.2 83% 29.94 0.0
05 07:15 Calm 10.00 Fair CLR 71.6 68 88% 29.94 0.0
05 06:55 Calm 10.00 Fair CLR 70.7 68 78.3 70.7 91% 29.94 0.0
05 06:35 Calm 10.00 Fair CLR 73.4 68 83% 29.93 0.0
05 06:15 S 3 10.00 Fair CLR 72 68.2 88% 29.93 0.0
05 05:55 S 5 10.00 Fair CLR 72.7 68.4 86% 29.92 0.0
05 05:35 SW 6 10.00 Fair CLR 73.2 68.4 85% 29.92 0.0
05 05:15 SW 6 10.00 Fair CLR 74.5 68.5 82% 29.91 0.0
05 04:55 SW 7 10.00 Fair CLR 73.8 68.5 84% 29.9 0.0
05 04:35 SW 6 10.00 Fair CLR 73.9 68.7 84% 29.91 0.0
05 04:15 S 7 10.00 Fair CLR 74.1 68.9 84% 29.92 0.0
05 03:55 SW 6 10.00 Fair CLR 74.5 68.9 83% 29.92 0.0
05 03:35 SW 7 10.00 Fair CLR 73.8 69.1 85% 29.92 0.0
05 03:15 S 7 10.00 Fair CLR 73.6 69.1 86% 29.93 0.0
05 02:55 S 5 10.00 Fair CLR 73.4 69.3 87% 29.93 0.0
05 02:35 S 6 10.00 Fair CLR 74.7 69.4 84% 29.93 0.0
05 02:15 S 6 10.00 Fair CLR 75.4 69.8 83% 76 29.93 0.0
05 01:55 S 6 10.00 Fair CLR 76.1 69.8 81% 77 29.94 0.0
05 01:15 S 6 10.00 Fair CLR 77.7 69.8 77% 80 29.94 0.0
05 00:55 S 7 10.00 Fair CLR 78.3 69.8 91.6 78.3 75% 81 29.93 0.0
05 00:15 S 9 10.00 Fair CLR 80.6 69.8 70% 84 29.93 0.0
04 23:55 S 8 10.00 Fair CLR 80.2 70 71% 83 29.93 0.0
04 23:35 S 8 10.00 Fair CLR 79.9 70.2 72% 83 29.93 0.0
04 23:15 S 8 10.00 Fair CLR 80.4 70.2 71% 84 29.92 0.0
04 22:55 S 8 10.00 Fair CLR 81.5 70.5 69% 85 29.92 0.0
04 22:35 S 7 10.00 Fair CLR 82.2 70.7 68% 86 29.92 0.0
04 22:15 S 8 10.00 Fair CLR 81.5 71.1 71% 86 29.92 0.0
04 21:55 S 8 10.00 Fair CLR 81.7 71.2 71% 86 29.91 0.0
04 21:35 S 8 10.00 Fair CLR 81.7 72 72% 86 29.91 0.0
04 21:15 S 8 10.00 Fair CLR 82.4 72.5 72% 88 29.9 0.0
04 20:55 S 8 10.00 Fair CLR 82.4 73.4 74% 88 29.9 0.0
04 20:35 S 7 10.00 Fair CLR 83.1 73.8 73% 90 29.89 0.0
04 20:15 S 5 10.00 Fair CLR 84.6 73.9 71% 92 29.89 0.0
04 19:55 S 6 10.00 Fair CLR 84.9 75.2 73% 94 29.89 0.0
04 19:35 S 6 10.00 Fair CLR 87.4 75.2 67% 97 29.89 0.0
04 19:15 S 5 10.00 Fair CLR 90.1 75.2 62% 101 29.89 0.0
04 18:55 S 6 10.00 Fair CLR 91.8 74.5 96.6 91.8 57% 102 29.89 0.0
04 18:35 S 5 10.00 Fair CLR 92.8 74.8 56% 104 29.88 0.0
04 18:15 S 5 10.00 Fair CLR 94.1 73.9 52% 105 29.89 0.0
04 17:55 S 8 10.00 Fair CLR 94.8 72.1 48% 103 29.88 0.0
04 17:35 SW 7 10.00 Fair CLR 95.5 73.2 49% 105 29.88 0.0
04 17:15 S 8 10.00 Fair CLR 95.9 73.4 48% 106 29.88 0.0
04 16:55 S 9 10.00 Fair CLR 96.1 73.8 49% 107 29.88 0.0
04 16:35 SW 10 10.00 Fair CLR 95.7 73.9 50% 107 29.88 0.0
04 16:15 S 12 G 16 10.00 Fair CLR 95.7 73.9 50% 107 29.88 0.0
04 15:55 S 10 10.00 Fair CLR 95.9 74.3 50% 107 29.89 0.0
04 15:35 SW 8 10.00 Fair CLR 96.1 72.7 47% 106 29.89 0.0
04 15:15 SW 8 10.00 Fair CLR 96.1 73.8 49% 107 29.89 0.0
04 14:55 SW 9 10.00 Fair CLR 95.2 73.4 49% 105 29.9 0.0
04 14:35 S 8 10.00 Fair CLR 95 74.1 51% 106 29.9 0.0
04 14:15 SW 7 10.00 Fair CLR 94.3 73.8 51% 105 29.9 0.0
04 13:55 SW 9 10.00 NULL NULL 93.7 74.5 54% 105 29.91 0.0
04 13:35 SW 8 10.00 Fair CLR 92.7 73.2 53% 102 29.92 0.0
04 13:15 SW 12 10.00 Fair CLR 92.7 73.4 54% 102 29.92 0.0
04 12:55 S 9 10.00 Fair CLR 91.4 73.4 91.4 72.7 56% 100 29.92 0.0
04 12:35 S 9 10.00 Fair CLR 90.3 73.6 58% 99 29.92 0.0
04 12:15 SW 10 G 16 10.00 Fair CLR 89.6 72.7 58% 97 29.92 0.0
04 11:55 S 10 10.00 Fair CLR 88.5 72.7 60% 96 29.93 0.0
04 11:35 S 9 10.00 Fair CLR 87.4 72.5 61% 95 29.93 0.0
04 11:15 S 9 10.00 Fair CLR 86.2 72 63% 92 29.93 0.0
04 10:55 SW 8 10.00 Fair CLR 86 71.8 63% 92 29.92 0.0
04 10:35 S 9 10.00 Fair CLR 85.1 72.1 65% 91 29.92 0.0
04 10:15 S 10 10.00 Fair CLR 83.3 71.4 68% 88 29.92 0.0
04 09:55 S 9 10.00 Fair CLR 82.4 70.9 68% 87 29.92 0.0
04 09:35 S 9 10.00 Fair CLR 81.3 70.5 70% 85 29.92 0.0
04 09:15 S 9 10.00 Fair CLR 79.7 70 72% 83 29.92 0.0
04 08:55 S 10 10.00 Fair CLR 78.1 69.8 76% 80 29.92 0.0
04 08:35 S 9 10.00 Fair CLR 77.2 69.6 78% 79 29.92 0.0
04 08:15 S 9 10.00 Fair CLR 75.9 69.4 80% 77 29.9 0.0
04 07:55 S 9 10.00 Fair CLR 74.5 69.1 83% 29.9 0.0
04 07:35 S 7 10.00 Fair CLR 73.4 68.9 86% 29.89 0.0
04 07:15 S 9 10.00 Fair CLR 72.7 68.7 87% 29.89 0.0
04 06:55 S 9 10.00 Fair CLR 73.9 68.5 80.4 73.9 83% 29.88 0.0
04 06:35 SW 9 10.00 Fair CLR 74.5 68.9 83% 29.88 0.0
04 06:15 S 9 10.00 Fair CLR 75.4 68.9 80% 76 29.87 0.0
04 05:55 SW 10 10.00 Fair CLR 77 68.7 76% 79 29.88 0.0
04 05:35 SW 10 10.00 Fair CLR 77.4 68.9 75% 79 29.87 0.0
04 05:15 SW 12 10.00 Fair CLR 77.9 68.5 73% 80 29.87 0.0
04 04:55 SW 12 10.00 Fair CLR 77.9 68.7 73% 80 29.87 0.0
04 04:35 SW 10 10.00 Fair CLR 76.3 68.5 77% 78 29.87 0.0
04 04:15 SW 10 10.00 Fair CLR 76.6 68.5 76% 78 29.87 0.0
04 03:55 SW 10 10.00 Fair CLR 77.9 68.4 73% 80 29.87 0.0
04 03:35 SW 10 10.00 Fair CLR 77.9 68.2 72% 80 29.87 0.0
04 03:15 SW 9 10.00 Fair CLR 77.9 68.2 72% 80 29.87 0.0
04 02:55 SW 10 10.00 Fair CLR 78.6 68 70% 81 29.87 0.0
04 02:35 SW 10 10.00 Fair CLR 79.3 68 68% 82 29.87 0.0
04 02:15 SW 12 10.00 Fair CLR 80.4 67.6 65% 83 29.87 0.0
04 01:55 SW 12 10.00 Fair CLR 79.9 67.5 66% 82 29.86 0.0
04 01:35 SW 13 10.00 Fair CLR 79 67.3 67% 81 29.86 0.0
04 01:15 S 12 10.00 Fair CLR 78.3 67.5 70% 80 29.87 0.0
04 00:55 S 12 10.00 Fair CLR 79 67.5 90.1 79 68% 81 29.86 0.0
04 00:35 S 12 10.00 Fair CLR 79.3 68 68% 82 29.86 0.0
04 00:15 S 10 10.00 Fair CLR 79.2 68 69% 82 29.85 0.0
03 23:55 S 10 10.00 Fair CLR 80.1 68 67% 83 29.85 0.0
03 23:35 S 10 10.00 Fair CLR 80.6 68 66% 83 29.85 0.0
03 23:15 S 10 10.00 Fair CLR 81 68 65% 84 29.85 0.0
03 22:55 S 9 10.00 Fair CLR 81.3 68.2 64% 84 29.85 0.0
03 22:35 S 9 10.00 Fair CLR 81.3 68.4 65% 84 29.85 0.0
03 22:15 S 9 10.00 Fair CLR 81 68.7 66% 84 29.85 0.0
03 21:55 S 9 10.00 Fair CLR 81.7 68.9 65% 85 29.85 0.0
03 21:35 S 9 10.00 Fair CLR 81.7 69.3 66% 85 29.84 0.0
03 21:15 S 9 10.00 Fair CLR 82.4 69.4 65% 86 29.84 0.0
03 20:55 S 9 10.00 Fair CLR 82.8 69.8 65% 87 29.84 0.0
03 20:35 S 9 10.00 Fair CLR 82.8 70 65% 87 29.83 0.0
03 20:15 S 7 10.00 Fair CLR 83.3 70.2 65% 88 29.82 0.0
03 19:55 S 7 10.00 Fair CLR 84.6 70.2 62% 89 29.82 0.0
03 19:35 S 9 10.00 Fair CLR 86.7 70.2 58% 92 29.81 0.0
03 19:15 S 9 10.00 Fair CLR 88.5 70.2 55% 94 29.81 0.0
03 18:55 S 10 10.00 Fair CLR 90.1 69.4 96.1 90.1 51% 95 29.81 0.0
03 18:35 S 12 10.00 Fair CLR 91.8 69.1 48% 97 29.81 0.0
03 18:15 S 14 10.00 Fair CLR 92.7 69.8 47% 98 29.81 0.0
03 17:55 S 13 G 17 10.00 Fair CLR 93.4 70.7 48% 100 29.81 0.0
03 17:35 S 15 G 21 10.00 Fair CLR 94.3 69.6 45% 100 29.8 0.0
03 17:15 S 14 G 24 10.00 Fair CLR 95 69.8 44% 101 29.8 0.0
03 16:55 S 14 G 22 10.00 Fair CLR 95.2 70.2 44% 102 29.81 0.0
03 16:35 S 16 10.00 Fair CLR 95.7 70.7 44% 103 29.81 0.0
03 16:15 S 15 G 21 10.00 Fair CLR 95.7 70.3 44% 103 29.81 0.0
03 15:55 S 15 G 21 10.00 Fair CLR 95.5 70.5 44% 103 29.81 0.0
03 15:35 S 16 G 23 10.00 Fair CLR 95.2 69.8 44% 101 29.82 0.0
03 15:15 S 16 10.00 Fair CLR 94.8 69.6 44% 101 29.82 0.0
03 14:55 S 16 7.00 Fair CLR 94.8 70.2 45% 101 29.83 0.0
03 14:35 S 13 G 23 10.00 Fair CLR 94.8 70 45% 101 29.83 0.0
03 14:15 S 18 G 23 10.00 Fair CLR 94.8 70.3 45% 102 29.84 0.0
03 13:55 S 17 10.00 Fair CLR 93.4 69.3 45% 99 29.84 0.0
03 13:35 S 18 G 24 10.00 Partly Cloudy SCT120 92.1 69.8 48% 98 29.85 0.0
03 13:15 S 15 G 20 10.00 Fair CLR 92.7 70.9 49% 99 29.86 0.0
03 12:55 S 16 10.00 Partly Cloudy SCT120 91.8 71.1 91.8 73.9 51% 99 29.86 0.0
03 12:35 S 17 10.00 Partly Cloudy SCT120 89.4 70.7 54% 95 29.87 0.0
03 12:15 S 14 G 21 10.00 Mostly Cloudy BKN110 88.2 71.4 58% 94 29.87 0.0
03 11:55 S 15 10.00 Partly Cloudy SCT110 87.1 71.2 59% 93 29.87 0.0
03 11:35 S 12 10.00 Mostly Cloudy BKN110 85.3 71.2 63% 91 29.87 0.0
03 11:15 S 14 10.00 Mostly Cloudy BKN110 85.1 70.9 63% 90 29.87 0.0
03 10:55 S 13 G 18 10.00 Partly Cloudy SCT120 85.5 70.3 61% 90 29.87 0.0
03 10:35 S 13 10.00 Fair CLR 86.4 70.3 59% 91 29.87 0.0
03 10:15 S 12 10.00 Partly Cloudy SCT120 85.1 70.2 61% 90 29.87 0.0
03 09:55 S 13 10.00 Partly Cloudy SCT120 81.3 69.3 67% 85 29.87 0.0
03 09:35 S 10 10.00 Thunderstorm in Vicinity SCT120 79.5 69.3 71% 82 29.87 0.0
03 09:15 S 12 10.00 Fair CLR 79.2 68.4 70% 82 29.88 0.0
03 08:55 S 10 10.00 Fair CLR 77.5 68.4 73% 79 29.88 0.0
03 08:35 S 10 10.00 Fair CLR 75.4 68 78% 76 29.88 0.0
03 08:15 S 8 10.00 Fair CLR 74.7 67.6 79% 29.88 0.0
03 07:55 S 9 10.00 Fair CLR 75.4 67.1 76% 77 29.88 0.0
03 07:35 S 10 10.00 Fair CLR 74.7 67.8 79% 29.87 0.0
03 07:15 SW 9 10.00 Mostly Cloudy SCT050 SCT070 BKN110 74.5 68 80% 29.87 0.0
03 06:55 S 13 G 17 5.00 Light Rain SCT028 BKN080 OVC100 76.6 67.5 79.9 73.9 73% 78 29.87 0.0 0.12 0.12
03 06:35 SW 9 7.00 Heavy Rain SCT032 SCT090 OVC110 75 67.5 77% 76 29.87 0.0 0.05
03 06:15 SW 8 10.00 Light Rain BKN110 76.8 65.8 69% 79 29.87 0.0
03 05:55 SW 7 10.00 Partly Cloudy SCT110 76.3 65.7 70% 78 29.87 0.0
03 05:35 SW 9 10.00 Partly Cloudy SCT120 77 65.7 68% 79 29.86 0.0
03 05:15 S 12 10.00 Partly Cloudy SCT110 77.9 65.3 65% 80 29.86 0.0
03 04:55 S 12 10.00 Partly Cloudy SCT090 SCT110 78.3 65.5 65% 80 29.86 0.0
03 04:35 SW 7 G 10 10.00 Mostly Cloudy SCT090 BKN120 76.8 66.4 70% 79 29.87 0.0
03 04:15 S 10 10.00 Mostly Cloudy BKN120 78.1 65.3 65% 80 29.87 0.0
03 03:55 S 10 10.00 Mostly Cloudy BKN120 78.4 65.3 64% 80 29.87 0.0
03 03:35 S 9 10.00 Mostly Cloudy BKN120 77.9 65.3 65% 80 29.87 0.0
03 03:15 S 10 10.00 Mostly Cloudy BKN120 77.9 65.7 66% 80 29.87 0.0
03 02:55 S 9 10.00 Partly Cloudy SCT120 77.9 65.7 66% 80 29.86 0.0
03 02:35 S 10 10.00 Fair CLR 78.1 65.5 65% 80 29.87 0.0
03 02:15 S 10 10.00 Partly Cloudy SCT120 78.8 65.5 64% 81 29.87 0.0
03 01:55 S 12 10.00 Partly Cloudy SCT120 79.2 65.7 63% 81 29.87 0.0
03 01:35 S 12 10.00 Fair CLR 79.2 65.7 63% 81 29.87 0.0
03 01:15 S 10 10.00 Fair CLR 79.2 65.8 64% 81 29.87 0.0
03 00:55 S 10 10.00 Fair CLR 79.7 65.8 91.6 79.7 63% 82 29.87 0.0
03 00:35 S 10 10.00 Fair CLR 80.1 66.2 63% 82 29.87 0.0
03 00:15 S 9 10.00 Fair CLR 80.6 66.2 62% 83 29.87 0.0
02 23:55 S 9 10.00 Fair CLR 80.2 66.2 62% 82 29.87 0.0
02 23:35 S 9 10.00 Fair CLR 79.9 66.6 64% 82 29.87 0.0
02 23:15 S 9 10.00 Fair CLR 80.4 66.7 63% 83 29.87 0.0
02 22:55 S 9 10.00 Fair CLR 80.8 66.7 62% 83 29.87 0.0
02 22:35 S 9 10.00 Fair CLR 81.5 66.7 61% 84 29.87 0.0
02 22:15 S 10 10.00 Fair CLR 82.4 66.6 59% 85 29.87 0.0
02 21:55 S 9 10.00 Fair CLR 82.4 66.7 59% 85 29.87 0.0
02 21:35 S 9 10.00 Fair CLR 82.9 66.7 58% 85 29.86 0.0
02 21:15 S 10 10.00 Fair CLR 83.5 66.9 58% 86 29.86 0.0
02 20:55 S 9 10.00 Fair CLR 83.3 67.3 59% 86 29.86 0.0
02 20:35 S 8 10.00 Fair CLR 83.1 67.5 59% 86 29.85 0.0
02 20:15 S 9 10.00 Fair CLR 84.4 67.1 56% 87 29.85 0.0
02 19:55 S 9 10.00 Fair CLR 85.6 67.3 54% 89 29.84 0.0
02 19:35 S 9 10.00 Fair CLR 86.9 68 53% 90 29.85 0.0
02 19:15 S 8 10.00 Fair CLR 89.2 67.8 49% 93 29.85 0.0
02 18:55 S 10 10.00 Fair CLR 91.8 66.7 98.2 91.8 44% 95 29.85 0.0
02 18:35 S 12 10.00 Fair CLR 93 67.1 43% 97 29.85 0.0
02 18:15 S 13 10.00 Fair CLR 94.5 67.8 42% 99 29.85 0.0
02 17:55 S 10 10.00 Fair CLR 95.5 68.2 41% 101 29.85 0.0
02 17:35 S 13 10.00 Fair CLR 96.3 66.4 38% 100 29.85 0.0
02 17:15 S 15 G 21 10.00 Fair CLR 97 67.8 39% 102 29.85 0.0
02 16:55 S 15 G 18 10.00 Fair CLR 97.5 67.5 38% 102 29.85 0.0
02 16:35 S 12 10.00 Fair CLR 97.7 67.5 37% 103 29.85 0.0
02 16:15 S 15 G 20 10.00 Fair CLR 97.9 67.6 37% 103 29.86 0.0
02 15:55 S 16 G 23 10.00 Fair CLR 97.9 67.1 37% 102 29.87 0.0
02 15:35 S 15 10.00 Fair CLR 97.7 67.8 38% 103 29.87 0.0
02 15:15 SW 16 G 21 10.00 Fair CLR 98.1 66.2 35% 102 29.87 0.0
Date Time (cdt) Wind (mph) Vis. (mi.) Weather Sky Cond. Air Dwpt Max. Min. Relative Humidity Wind Chill (°F) Heat Index (°F) altimeter (in) sea level (mb) 1 hr 3 hr 6 hr
6 hour
Temperature (ºF) Pressure Precipitation (in)